sensor_id;sensor_type;location;lat;lon;timestamp;temperature;humidity
12152;DHT22;6139;51.274;7.128;2023-01-29T00:00:25;-2.40;1.00
12152;DHT22;6139;51.274;7.128;2023-01-29T00:01:26;-2.40;1.00
12152;DHT22;6139;51.274;7.128;2023-01-29T00:02:28;-2.30;1.00
12152;DHT22;6139;51.274;7.128;2023-01-29T00:03:29;-2.30;25.10
12152;DHT22;6139;51.274;7.128;2023-01-29T00:04:31;-2.30;22.10
12152;DHT22;6139;51.274;7.128;2023-01-29T00:05:34;-2.20;7.40
12152;DHT22;6139;51.274;7.128;2023-01-29T00:06:36;-2.20;14.00
12152;DHT22;6139;51.274;7.128;2023-01-29T00:07:39;-2.20;31.70
12152;DHT22;6139;51.274;7.128;2023-01-29T00:08:40;-2.20;28.00
12152;DHT22;6139;51.274;7.128;2023-01-29T00:09:43;-2.20;85.50
12152;DHT22;6139;51.274;7.128;2023-01-29T00:10:44;-2.20;94.50
12152;DHT22;6139;51.274;7.128;2023-01-29T00:11:46;-2.20;39.20
12152;DHT22;6139;51.274;7.128;2023-01-29T00:12:47;-2.30;53.00
12152;DHT22;6139;51.274;7.128;2023-01-29T00:13:49;-2.30;20.80
12152;DHT22;6139;51.274;7.128;2023-01-29T00:14:50;-2.30;20.60
12152;DHT22;6139;51.274;7.128;2023-01-29T00:15:56;-2.30;93.30
12152;DHT22;6139;51.274;7.128;2023-01-29T00:16:57;-2.30;40.20
12152;DHT22;6139;51.274;7.128;2023-01-29T00:17:59;-2.30;10.30
12152;DHT22;6139;51.274;7.128;2023-01-29T00:19:00;-2.30;50.00
12152;DHT22;6139;51.274;7.128;2023-01-29T00:20:02;-2.40;45.70
12152;DHT22;6139;51.274;7.128;2023-01-29T00:21:08;-2.40;50.90
12152;DHT22;6139;51.274;7.128;2023-01-29T00:22:09;-2.40;17.30
12152;DHT22;6139;51.274;7.128;2023-01-29T00:23:10;-2.40;83.90
12152;DHT22;6139;51.274;7.128;2023-01-29T00:24:12;-2.40;71.80
12152;DHT22;6139;51.274;7.128;2023-01-29T00:25:16;-2.40;81.70
12152;DHT22;6139;51.274;7.128;2023-01-29T00:26:17;-2.40;99.90
12152;DHT22;6139;51.274;7.128;2023-01-29T00:27:22;-2.40;91.10
12152;DHT22;6139;51.274;7.128;2023-01-29T00:28:23;-2.50;99.90
12152;DHT22;6139;51.274;7.128;2023-01-29T00:29:24;-2.50;1.00
12152;DHT22;6139;51.274;7.128;2023-01-29T00:30:25;-2.50;17.60
12152;DHT22;6139;51.274;7.128;2023-01-29T00:31:27;-2.50;50.30
12152;DHT22;6139;51.274;7.128;2023-01-29T00:32:29;-2.50;31.40
12152;DHT22;6139;51.274;7.128;2023-01-29T00:33:33;-2.50;84.70
12152;DHT22;6139;51.274;7.128;2023-01-29T00:34:34;-2.50;23.40
12152;DHT22;6139;51.274;7.128;2023-01-29T00:35:38;-2.50;19.40
12152;DHT22;6139;51.274;7.128;2023-01-29T00:36:41;-2.40;24.90
12152;DHT22;6139;51.274;7.128;2023-01-29T00:37:44;-2.40;66.60
12152;DHT22;6139;51.274;7.128;2023-01-29T00:38:46;-2.40;66.30
12152;DHT22;6139;51.274;7.128;2023-01-29T00:39:54;-2.40;9.30
12152;DHT22;6139;51.274;7.128;2023-01-29T00:40:57;-2.40;1.00
12152;DHT22;6139;51.274;7.128;2023-01-29T00:42:16;-2.40;1.00
12152;DHT22;6139;51.274;7.128;2023-01-29T00:43:37;-2.40;1.00
12152;DHT22;6139;51.274;7.128;2023-01-29T00:44:57;-2.40;43.80
12152;DHT22;6139;51.274;7.128;2023-01-29T00:45:59;-2.40;1.00
12152;DHT22;6139;51.274;7.128;2023-01-29T00:47:00;-2.40;31.60
12152;DHT22;6139;51.274;7.128;2023-01-29T00:48:03;-2.40;12.90
12152;DHT22;6139;51.274;7.128;2023-01-29T00:49:04;-2.40;39.80
12152;DHT22;6139;51.274;7.128;2023-01-29T00:50:08;-2.40;1.00
12152;DHT22;6139;51.274;7.128;2023-01-29T00:51:10;-2.40;1.00
12152;DHT22;6139;51.274;7.128;2023-01-29T00:52:11;-2.40;1.00
12152;DHT22;6139;51.274;7.128;2023-01-29T00:53:25;-2.40;47.00
12152;DHT22;6139;51.274;7.128;2023-01-29T00:54:27;-2.40;1.00
12152;DHT22;6139;51.274;7.128;2023-01-29T00:55:28;-2.50;1.00
12152;DHT22;6139;51.274;7.128;2023-01-29T00:56:32;-2.40;38.20
12152;DHT22;6139;51.274;7.128;2023-01-29T00:57:34;-2.50;58.70
12152;DHT22;6139;51.274;7.128;2023-01-29T00:58:37;-2.50;26.90
12152;DHT22;6139;51.274;7.128;2023-01-29T00:59:37;-2.40;28.20
12152;DHT22;6139;51.274;7.128;2023-01-29T01:00:39;-2.40;25.70
12152;DHT22;6139;51.274;7.128;2023-01-29T01:01:40;-2.40;21.90
12152;DHT22;6139;51.274;7.128;2023-01-29T01:03:00;-2.40;35.20
12152;DHT22;6139;51.274;7.128;2023-01-29T01:04:10;-2.40;1.00
12152;DHT22;6139;51.274;7.128;2023-01-29T01:05:13;-2.40;57.40
12152;DHT22;6139;51.274;7.128;2023-01-29T01:06:17;-2.40;5.40
12152;DHT22;6139;51.274;7.128;2023-01-29T01:07:18;-2.40;1.00
12152;DHT22;6139;51.274;7.128;2023-01-29T01:08:20;-2.50;1.00
12152;DHT22;6139;51.274;7.128;2023-01-29T01:09:40;-2.50;1.00
12152;DHT22;6139;51.274;7.128;2023-01-29T01:11:01;-2.40;16.70
12152;DHT22;6139;51.274;7.128;2023-01-29T01:12:05;-2.40;11.30
12152;DHT22;6139;51.274;7.128;2023-01-29T01:13:06;-2.50;1.00
12152;DHT22;6139;51.274;7.128;2023-01-29T01:14:08;-2.40;1.00
12152;DHT22;6139;51.274;7.128;2023-01-29T01:15:09;-2.40;1.00
12152;DHT22;6139;51.274;7.128;2023-01-29T01:16:13;-2.40;1.00
12152;DHT22;6139;51.274;7.128;2023-01-29T01:17:16;-2.40;1.00
12152;DHT22;6139;51.274;7.128;2023-01-29T01:18:17;-2.40;1.00
12152;DHT22;6139;51.274;7.128;2023-01-29T01:19:21;-2.40;1.00
12152;DHT22;6139;51.274;7.128;2023-01-29T01:20:23;-2.40;72.40
12152;DHT22;6139;51.274;7.128;2023-01-29T01:21:26;-2.50;29.40
12152;DHT22;6139;51.274;7.128;2023-01-29T01:22:27;-2.40;99.90
12152;DHT22;6139;51.274;7.128;2023-01-29T01:23:29;-2.40;77.00
12152;DHT22;6139;51.274;7.128;2023-01-29T01:24:29;-2.40;1.00
12152;DHT22;6139;51.274;7.128;2023-01-29T01:25:31;-2.50;46.30
12152;DHT22;6139;51.274;7.128;2023-01-29T01:26:32;-2.50;11.20
12152;DHT22;6139;51.274;7.128;2023-01-29T01:27:36;-2.50;38.10
12152;DHT22;6139;51.274;7.128;2023-01-29T01:28:40;-2.50;99.90
12152;DHT22;6139;51.274;7.128;2023-01-29T01:29:42;-2.40;56.90
12152;DHT22;6139;51.274;7.128;2023-01-29T01:30:43;-2.40;70.00
12152;DHT22;6139;51.274;7.128;2023-01-29T01:31:46;-2.40;65.20
12152;DHT22;6139;51.274;7.128;2023-01-29T01:32:47;-2.40;20.80
12152;DHT22;6139;51.274;7.128;2023-01-29T01:33:48;-2.40;15.50
12152;DHT22;6139;51.274;7.128;2023-01-29T01:34:51;-2.40;99.90
12152;DHT22;6139;51.274;7.128;2023-01-29T01:35:53;-2.40;73.00
12152;DHT22;6139;51.274;7.128;2023-01-29T01:36:56;-2.40;44.70
12152;DHT22;6139;51.274;7.128;2023-01-29T01:37:57;-2.40;38.40
12152;DHT22;6139;51.274;7.128;2023-01-29T01:38:59;-2.40;50.60
12152;DHT22;6139;51.274;7.128;2023-01-29T01:40:00;-2.40;99.90
12152;DHT22;6139;51.274;7.128;2023-01-29T01:41:02;-2.40;77.50
12152;DHT22;6139;51.274;7.128;2023-01-29T01:42:08;-2.40;44.70
12152;DHT22;6139;51.274;7.128;2023-01-29T01:43:12;-2.40;99.90
12152;DHT22;6139;51.274;7.128;2023-01-29T01:44:50;-2.40;71.50
12152;DHT22;6139;51.274;7.128;2023-01-29T01:45:53;-2.30;99.90
12152;DHT22;6139;51.274;7.128;2023-01-29T01:46:54;-2.30;99.90
12152;DHT22;6139;51.274;7.128;2023-01-29T01:47:58;-2.30;99.90
12152;DHT22;6139;51.274;7.128;2023-01-29T01:49:04;-2.30;99.90
12152;DHT22;6139;51.274;7.128;2023-01-29T01:50:11;-2.30;99.90
12152;DHT22;6139;51.274;7.128;2023-01-29T01:51:15;-2.40;99.90
12152;DHT22;6139;51.274;7.128;2023-01-29T01:52:16;-2.40;54.60
12152;DHT22;6139;51.274;7.128;2023-01-29T01:53:23;-2.40;73.00
12152;DHT22;6139;51.274;7.128;2023-01-29T01:54:27;-2.40;99.90
12152;DHT22;6139;51.274;7.128;2023-01-29T01:55:31;-2.40;99.90
12152;DHT22;6139;51.274;7.128;2023-01-29T01:56:37;-2.40;99.90
12152;DHT22;6139;51.274;7.128;2023-01-29T01:57:42;-2.40;99.90
12152;DHT22;6139;51.274;7.128;2023-01-29T01:58:48;-2.40;99.90
12152;DHT22;6139;51.274;7.128;2023-01-29T01:59:55;-2.40;73.70
12152;DHT22;6139;51.274;7.128;2023-01-29T02:00:58;-2.40;99.90
12152;DHT22;6139;51.274;7.128;2023-01-29T02:02:00;-2.50;98.20
12152;DHT22;6139;51.274;7.128;2023-01-29T02:03:20;-2.50;99.90
12152;DHT22;6139;51.274;7.128;2023-01-29T02:04:45;-2.50;55.70
12152;DHT22;6139;51.274;7.128;2023-01-29T02:06:06;-2.50;99.90
12152;DHT22;6139;51.274;7.128;2023-01-29T02:07:26;-2.50;65.70
12152;DHT22;6139;51.274;7.128;2023-01-29T02:08:50;-2.50;1.10
12152;DHT22;6139;51.274;7.128;2023-01-29T02:10:13;-2.50;97.50
12152;DHT22;6139;51.274;7.128;2023-01-29T02:11:17;-2.50;53.30
12152;DHT22;6139;51.274;7.128;2023-01-29T02:12:19;-2.50;56.80
12152;DHT22;6139;51.274;7.128;2023-01-29T02:13:22;-2.50;99.90
12152;DHT22;6139;51.274;7.128;2023-01-29T02:14:24;-2.50;99.90
12152;DHT22;6139;51.274;7.128;2023-01-29T02:15:27;-2.50;99.90
12152;DHT22;6139;51.274;7.128;2023-01-29T02:16:33;-2.50;99.90
12152;DHT22;6139;51.274;7.128;2023-01-29T02:17:37;-2.50;99.90
12152;DHT22;6139;51.274;7.128;2023-01-29T02:18:39;-2.50;99.90
12152;DHT22;6139;51.274;7.128;2023-01-29T02:19:47;-2.50;99.90
12152;DHT22;6139;51.274;7.128;2023-01-29T02:21:04;-2.50;1.00
12152;DHT22;6139;51.274;7.128;2023-01-29T02:22:23;-2.50;81.70
12152;DHT22;6139;51.274;7.128;2023-01-29T02:24:08;-2.50;96.50
12152;DHT22;6139;51.274;7.128;2023-01-29T02:26:49;-2.50;99.90
12152;DHT22;6139;51.274;7.128;2023-01-29T02:28:18;-2.50;99.90
12152;DHT22;6139;51.274;7.128;2023-01-29T02:29:29;-2.50;99.90
12152;DHT22;6139;51.274;7.128;2023-01-29T02:30:37;-2.50;99.90
12152;DHT22;6139;51.274;7.128;2023-01-29T02:31:43;-2.50;78.80
12152;DHT22;6139;51.274;7.128;2023-01-29T02:32:50;-2.50;99.90
12152;DHT22;6139;51.274;7.128;2023-01-29T02:34:07;-2.50;99.90
12152;DHT22;6139;51.274;7.128;2023-01-29T02:35:17;-2.50;99.90
12152;DHT22;6139;51.274;7.128;2023-01-29T02:36:33;-2.50;99.90
12152;DHT22;6139;51.274;7.128;2023-01-29T02:37:40;-2.60;36.40
12152;DHT22;6139;51.274;7.128;2023-01-29T02:38:53;-2.50;75.20
12152;DHT22;6139;51.274;7.128;2023-01-29T02:40:06;-2.60;54.30
12152;DHT22;6139;51.274;7.128;2023-01-29T02:41:14;-2.60;60.90
12152;DHT22;6139;51.274;7.128;2023-01-29T02:42:23;-2.60;99.90
12152;DHT22;6139;51.274;7.128;2023-01-29T02:43:32;-2.50;79.00
12152;DHT22;6139;51.274;7.128;2023-01-29T02:44:40;-2.50;99.90
12152;DHT22;6139;51.274;7.128;2023-01-29T02:45:46;-2.50;99.90
12152;DHT22;6139;51.274;7.128;2023-01-29T02:46:52;-2.50;99.90
12152;DHT22;6139;51.274;7.128;2023-01-29T02:47:58;-2.50;99.90
12152;DHT22;6139;51.274;7.128;2023-01-29T02:49:07;-2.50;54.70
12152;DHT22;6139;51.274;7.128;2023-01-29T02:50:15;-2.50;1.00
12152;DHT22;6139;51.274;7.128;2023-01-29T02:51:22;-2.60;78.40
12152;DHT22;6139;51.274;7.128;2023-01-29T02:52:33;-2.50;93.60
12152;DHT22;6139;51.274;7.128;2023-01-29T02:53:38;-2.60;99.90
12152;DHT22;6139;51.274;7.128;2023-01-29T02:54:44;-2.50;96.30
12152;DHT22;6139;51.274;7.128;2023-01-29T02:55:52;-2.60;99.90
12152;DHT22;6139;51.274;7.128;2023-01-29T02:56:58;-2.60;99.40
12152;DHT22;6139;51.274;7.128;2023-01-29T02:58:05;-2.60;99.90
12152;DHT22;6139;51.274;7.128;2023-01-29T02:59:15;-2.60;99.90
12152;DHT22;6139;51.274;7.128;2023-01-29T03:00:20;-2.50;99.90
12152;DHT22;6139;51.274;7.128;2023-01-29T03:01:25;-2.50;99.90
12152;DHT22;6139;51.274;7.128;2023-01-29T03:02:34;-2.50;99.80
12152;DHT22;6139;51.274;7.128;2023-01-29T03:03:40;-2.60;47.10
12152;DHT22;6139;51.274;7.128;2023-01-29T03:04:45;-2.60;99.90
12152;DHT22;6139;51.274;7.128;2023-01-29T03:05:55;-2.60;99.90
12152;DHT22;6139;51.274;7.128;2023-01-29T03:07:02;-2.60;5.80
12152;DHT22;6139;51.274;7.128;2023-01-29T03:08:08;-2.60;3.50
12152;DHT22;6139;51.274;7.128;2023-01-29T03:09:16;-2.60;10.90
12152;DHT22;6139;51.274;7.128;2023-01-29T03:10:23;-2.60;99.90
12152;DHT22;6139;51.274;7.128;2023-01-29T03:11:33;-2.60;35.70
12152;DHT22;6139;51.274;7.128;2023-01-29T03:12:38;-2.60;60.80
12152;DHT22;6139;51.274;7.128;2023-01-29T03:13:44;-2.70;24.00
12152;DHT22;6139;51.274;7.128;2023-01-29T03:14:49;-2.70;55.90
12152;DHT22;6139;51.274;7.128;2023-01-29T03:16:14;-2.70;39.70
12152;DHT22;6139;51.274;7.128;2023-01-29T03:17:22;-2.70;90.10
12152;DHT22;6139;51.274;7.128;2023-01-29T03:18:26;-2.70;47.40
12152;DHT22;6139;51.274;7.128;2023-01-29T03:19:38;-2.70;38.80
12152;DHT22;6139;51.274;7.128;2023-01-29T03:20:52;-2.70;79.50
12152;DHT22;6139;51.274;7.128;2023-01-29T03:21:57;-2.60;99.90
12152;DHT22;6139;51.274;7.128;2023-01-29T03:23:02;-2.60;59.20
12152;DHT22;6139;51.274;7.128;2023-01-29T03:24:08;-2.60;1.00
12152;DHT22;6139;51.274;7.128;2023-01-29T03:25:30;-2.60;99.90
12152;DHT22;6139;51.274;7.128;2023-01-29T03:26:51;-2.60;99.90
12152;DHT22;6139;51.274;7.128;2023-01-29T03:28:17;-2.60;99.90
12152;DHT22;6139;51.274;7.128;2023-01-29T03:29:40;-2.60;99.90
12152;DHT22;6139;51.274;7.128;2023-01-29T03:31:13;-2.60;99.90
12152;DHT22;6139;51.274;7.128;2023-01-29T03:32:36;-2.60;99.90
12152;DHT22;6139;51.274;7.128;2023-01-29T03:33:42;-2.60;99.90
12152;DHT22;6139;51.274;7.128;2023-01-29T03:34:48;-2.70;99.90
12152;DHT22;6139;51.274;7.128;2023-01-29T03:35:57;-2.60;99.90
12152;DHT22;6139;51.274;7.128;2023-01-29T03:37:03;-2.60;99.90
12152;DHT22;6139;51.274;7.128;2023-01-29T03:38:09;-2.60;99.90
12152;DHT22;6139;51.274;7.128;2023-01-29T03:39:12;-2.70;99.90
12152;DHT22;6139;51.274;7.128;2023-01-29T03:40:15;-2.70;35.30
12152;DHT22;6139;51.274;7.128;2023-01-29T03:41:22;-2.70;99.90
12152;DHT22;6139;51.274;7.128;2023-01-29T03:42:27;-2.70;56.10
12152;DHT22;6139;51.274;7.128;2023-01-29T03:43:33;-2.70;99.90
12152;DHT22;6139;51.274;7.128;2023-01-29T03:44:43;-2.70;46.20
12152;DHT22;6139;51.274;7.128;2023-01-29T03:46:00;-2.70;99.90
12152;DHT22;6139;51.274;7.128;2023-01-29T03:47:13;-2.70;93.50
12152;DHT22;6139;51.274;7.128;2023-01-29T03:48:23;-2.70;99.90
12152;DHT22;6139;51.274;7.128;2023-01-29T03:49:36;-2.70;1.00
12152;DHT22;6139;51.274;7.128;2023-01-29T03:50:52;-2.70;99.90
12152;DHT22;6139;51.274;7.128;2023-01-29T03:51:59;-2.70;99.90
12152;DHT22;6139;51.274;7.128;2023-01-29T03:53:06;-2.70;82.10
12152;DHT22;6139;51.274;7.128;2023-01-29T03:54:15;-2.70;91.50
12152;DHT22;6139;51.274;7.128;2023-01-29T03:55:23;-2.70;41.20
12152;DHT22;6139;51.274;7.128;2023-01-29T03:56:40;-2.70;12.50
12152;DHT22;6139;51.274;7.128;2023-01-29T03:57:53;-2.80;99.90
12152;DHT22;6139;51.274;7.128;2023-01-29T03:59:00;-2.80;14.70
12152;DHT22;6139;51.274;7.128;2023-01-29T04:00:22;-2.80;94.70
12152;DHT22;6139;51.274;7.128;2023-01-29T04:01:36;-2.70;99.90
12152;DHT22;6139;51.274;7.128;2023-01-29T04:02:47;-2.80;99.90
12152;DHT22;6139;51.274;7.128;2023-01-29T04:03:56;-2.80;99.90
12152;DHT22;6139;51.274;7.128;2023-01-29T04:05:02;-2.80;24.90
12152;DHT22;6139;51.274;7.128;2023-01-29T04:06:10;-2.80;52.90
12152;DHT22;6139;51.274;7.128;2023-01-29T04:07:25;-2.80;79.30
12152;DHT22;6139;51.274;7.128;2023-01-29T04:08:39;-2.80;35.70
12152;DHT22;6139;51.274;7.128;2023-01-29T04:09:44;-2.80;30.00
12152;DHT22;6139;51.274;7.128;2023-01-29T04:10:48;-2.80;26.60
12152;DHT22;6139;51.274;7.128;2023-01-29T04:11:54;-2.80;91.90
12152;DHT22;6139;51.274;7.128;2023-01-29T04:13:01;-2.80;45.10
12152;DHT22;6139;51.274;7.128;2023-01-29T04:14:06;-2.80;11.40
12152;DHT22;6139;51.274;7.128;2023-01-29T04:15:11;-2.80;92.20
12152;DHT22;6139;51.274;7.128;2023-01-29T04:16:18;-2.80;40.10
12152;DHT22;6139;51.274;7.128;2023-01-29T04:17:35;-2.80;78.00
12152;DHT22;6139;51.274;7.128;2023-01-29T04:18:47;-2.80;73.50
12152;DHT22;6139;51.274;7.128;2023-01-29T04:19:49;-2.80;99.90
12152;DHT22;6139;51.274;7.128;2023-01-29T04:20:51;-2.80;99.90
12152;DHT22;6139;51.274;7.128;2023-01-29T04:22:01;-2.80;22.20
12152;DHT22;6139;51.274;7.128;2023-01-29T04:23:05;-2.80;61.60
12152;DHT22;6139;51.274;7.128;2023-01-29T04:24:08;-2.80;99.90
12152;DHT22;6139;51.274;7.128;2023-01-29T04:25:12;-2.90;93.10
12152;DHT22;6139;51.274;7.128;2023-01-29T04:26:37;-2.80;92.50
12152;DHT22;6139;51.274;7.128;2023-01-29T04:27:47;-2.80;89.00
12152;DHT22;6139;51.274;7.128;2023-01-29T04:29:02;-2.80;99.90
12152;DHT22;6139;51.274;7.128;2023-01-29T04:30:19;-2.80;93.00
12152;DHT22;6139;51.274;7.128;2023-01-29T04:31:27;-2.80;99.90
12152;DHT22;6139;51.274;7.128;2023-01-29T04:32:39;-2.80;91.30
12152;DHT22;6139;51.274;7.128;2023-01-29T04:33:55;-2.80;90.80
12152;DHT22;6139;51.274;7.128;2023-01-29T04:35:03;-2.80;99.90
12152;DHT22;6139;51.274;7.128;2023-01-29T04:36:19;-2.90;99.90
12152;DHT22;6139;51.274;7.128;2023-01-29T04:37:31;-2.80;99.90
12152;DHT22;6139;51.274;7.128;2023-01-29T04:38:46;-2.80;99.90
12152;DHT22;6139;51.274;7.128;2023-01-29T04:39:55;-2.80;99.90
12152;DHT22;6139;51.274;7.128;2023-01-29T04:41:02;-2.80;99.90
12152;DHT22;6139;51.274;7.128;2023-01-29T04:42:11;-2.80;97.50
12152;DHT22;6139;51.274;7.128;2023-01-29T04:43:18;-2.80;99.90
12152;DHT22;6139;51.274;7.128;2023-01-29T04:44:26;-2.80;99.90
12152;DHT22;6139;51.274;7.128;2023-01-29T04:45:38;-2.80;99.90
12152;DHT22;6139;51.274;7.128;2023-01-29T04:46:48;-2.80;99.90
12152;DHT22;6139;51.274;7.128;2023-01-29T04:47:59;-2.80;99.90
12152;DHT22;6139;51.274;7.128;2023-01-29T04:49:16;-2.80;99.90
12152;DHT22;6139;51.274;7.128;2023-01-29T04:50:25;-2.80;99.90
12152;DHT22;6139;51.274;7.128;2023-01-29T04:51:34;-2.80;99.90
12152;DHT22;6139;51.274;7.128;2023-01-29T04:52:46;-2.90;99.90
12152;DHT22;6139;51.274;7.128;2023-01-29T04:53:51;-2.80;99.90
12152;DHT22;6139;51.274;7.128;2023-01-29T04:55:04;-2.80;99.90
12152;DHT22;6139;51.274;7.128;2023-01-29T04:56:08;-2.80;99.90
12152;DHT22;6139;51.274;7.128;2023-01-29T04:57:19;-2.90;99.90
12152;DHT22;6139;51.274;7.128;2023-01-29T04:58:27;-2.80;99.90
12152;DHT22;6139;51.274;7.128;2023-01-29T04:59:35;-2.90;99.90
12152;DHT22;6139;51.274;7.128;2023-01-29T05:00:42;-2.90;99.90
12152;DHT22;6139;51.274;7.128;2023-01-29T05:01:43;-2.90;99.90
12152;DHT22;6139;51.274;7.128;2023-01-29T05:02:46;-2.80;99.90
12152;DHT22;6139;51.274;7.128;2023-01-29T05:03:49;-2.80;99.90
12152;DHT22;6139;51.274;7.128;2023-01-29T05:04:55;-2.80;99.90
12152;DHT22;6139;51.274;7.128;2023-01-29T05:05:59;-2.80;99.90
12152;DHT22;6139;51.274;7.128;2023-01-29T05:07:04;-2.80;99.90
12152;DHT22;6139;51.274;7.128;2023-01-29T05:08:07;-2.80;99.90
12152;DHT22;6139;51.274;7.128;2023-01-29T05:09:11;-2.80;99.90
12152;DHT22;6139;51.274;7.128;2023-01-29T05:10:17;-2.80;99.90
12152;DHT22;6139;51.274;7.128;2023-01-29T05:11:19;-2.70;99.90
12152;DHT22;6139;51.274;7.128;2023-01-29T05:12:21;-2.80;99.90
12152;DHT22;6139;51.274;7.128;2023-01-29T05:13:25;-2.70;99.90
12152;DHT22;6139;51.274;7.128;2023-01-29T05:14:30;-2.70;99.90
12152;DHT22;6139;51.274;7.128;2023-01-29T05:15:36;-2.70;99.90
12152;DHT22;6139;51.274;7.128;2023-01-29T05:16:41;-2.70;99.90
12152;DHT22;6139;51.274;7.128;2023-01-29T05:17:42;-2.70;99.90
12152;DHT22;6139;51.274;7.128;2023-01-29T05:18:45;-2.70;99.90
12152;DHT22;6139;51.274;7.128;2023-01-29T05:19:46;-2.60;99.90
12152;DHT22;6139;51.274;7.128;2023-01-29T05:20:50;-2.70;99.90
12152;DHT22;6139;51.274;7.128;2023-01-29T05:21:52;-2.60;99.90
12152;DHT22;6139;51.274;7.128;2023-01-29T05:22:55;-2.60;99.90
12152;DHT22;6139;51.274;7.128;2023-01-29T05:24:07;-2.60;99.90
12152;DHT22;6139;51.274;7.128;2023-01-29T05:25:20;-2.60;99.90
12152;DHT22;6139;51.274;7.128;2023-01-29T05:26:21;-2.60;99.90
12152;DHT22;6139;51.274;7.128;2023-01-29T05:27:41;-2.60;99.90
12152;DHT22;6139;51.274;7.128;2023-01-29T05:29:00;-2.60;99.90
12152;DHT22;6139;51.274;7.128;2023-01-29T05:30:02;-2.60;99.90
12152;DHT22;6139;51.274;7.128;2023-01-29T05:31:04;-2.60;99.90
12152;DHT22;6139;51.274;7.128;2023-01-29T05:32:05;-2.60;99.90
12152;DHT22;6139;51.274;7.128;2023-01-29T05:33:12;-2.60;99.90
12152;DHT22;6139;51.274;7.128;2023-01-29T05:34:14;-2.60;99.90
12152;DHT22;6139;51.274;7.128;2023-01-29T05:35:15;-2.60;99.90
12152;DHT22;6139;51.274;7.128;2023-01-29T05:36:19;-2.60;99.90
12152;DHT22;6139;51.274;7.128;2023-01-29T05:37:20;-2.60;99.90
12152;DHT22;6139;51.274;7.128;2023-01-29T05:38:22;-2.60;99.90
12152;DHT22;6139;51.274;7.128;2023-01-29T05:39:23;-2.60;99.90
12152;DHT22;6139;51.274;7.128;2023-01-29T05:40:25;-2.60;99.90
12152;DHT22;6139;51.274;7.128;2023-01-29T05:41:26;-2.60;99.90
12152;DHT22;6139;51.274;7.128;2023-01-29T05:42:28;-2.60;99.90
12152;DHT22;6139;51.274;7.128;2023-01-29T05:43:29;-2.60;99.90
12152;DHT22;6139;51.274;7.128;2023-01-29T05:44:31;-2.60;99.90
12152;DHT22;6139;51.274;7.128;2023-01-29T05:45:32;-2.60;99.90
12152;DHT22;6139;51.274;7.128;2023-01-29T05:46:34;-2.60;99.90
12152;DHT22;6139;51.274;7.128;2023-01-29T05:47:35;-2.60;99.90
12152;DHT22;6139;51.274;7.128;2023-01-29T05:48:37;-2.60;99.90
12152;DHT22;6139;51.274;7.128;2023-01-29T05:49:37;-2.60;99.90
12152;DHT22;6139;51.274;7.128;2023-01-29T05:50:39;-2.60;99.90
12152;DHT22;6139;51.274;7.128;2023-01-29T05:51:42;-2.60;99.90
12152;DHT22;6139;51.274;7.128;2023-01-29T05:52:44;-2.60;99.90
12152;DHT22;6139;51.274;7.128;2023-01-29T05:53:45;-2.60;99.90
12152;DHT22;6139;51.274;7.128;2023-01-29T05:54:47;-2.60;99.90
12152;DHT22;6139;51.274;7.128;2023-01-29T05:55:48;-2.60;99.90
12152;DHT22;6139;51.274;7.128;2023-01-29T05:56:50;-2.60;99.90
12152;DHT22;6139;51.274;7.128;2023-01-29T05:57:51;-2.60;99.90
12152;DHT22;6139;51.274;7.128;2023-01-29T05:58:54;-2.60;99.90
12152;DHT22;6139;51.274;7.128;2023-01-29T05:59:55;-2.60;99.90
12152;DHT22;6139;51.274;7.128;2023-01-29T06:00:57;-2.60;99.90
12152;DHT22;6139;51.274;7.128;2023-01-29T06:01:58;-2.60;99.90
12152;DHT22;6139;51.274;7.128;2023-01-29T06:02:59;-2.60;99.90
12152;DHT22;6139;51.274;7.128;2023-01-29T06:04:02;-2.60;99.90
12152;DHT22;6139;51.274;7.128;2023-01-29T06:05:03;-2.60;99.90
12152;DHT22;6139;51.274;7.128;2023-01-29T06:06:06;-2.60;99.90
12152;DHT22;6139;51.274;7.128;2023-01-29T06:07:08;-2.60;99.90
12152;DHT22;6139;51.274;7.128;2023-01-29T06:08:10;-2.60;99.90
12152;DHT22;6139;51.274;7.128;2023-01-29T06:09:11;-2.60;99.90
12152;DHT22;6139;51.274;7.128;2023-01-29T06:10:15;-2.60;99.90
12152;DHT22;6139;51.274;7.128;2023-01-29T06:11:17;-2.60;99.90
12152;DHT22;6139;51.274;7.128;2023-01-29T06:12:18;-2.70;99.90
12152;DHT22;6139;51.274;7.128;2023-01-29T06:13:19;-2.70;99.90
12152;DHT22;6139;51.274;7.128;2023-01-29T06:14:21;-2.60;99.90
12152;DHT22;6139;51.274;7.128;2023-01-29T06:15:22;-2.60;99.90
12152;DHT22;6139;51.274;7.128;2023-01-29T06:16:26;-2.60;99.90
12152;DHT22;6139;51.274;7.128;2023-01-29T06:17:27;-2.60;99.90
12152;DHT22;6139;51.274;7.128;2023-01-29T06:18:28;-2.60;99.90
12152;DHT22;6139;51.274;7.128;2023-01-29T06:19:29;-2.60;99.90
12152;DHT22;6139;51.274;7.128;2023-01-29T06:20:31;-2.60;99.90
12152;DHT22;6139;51.274;7.128;2023-01-29T06:21:32;-2.60;99.90
12152;DHT22;6139;51.274;7.128;2023-01-29T06:22:36;-2.50;99.90
12152;DHT22;6139;51.274;7.128;2023-01-29T06:23:37;-2.50;99.90
12152;DHT22;6139;51.274;7.128;2023-01-29T06:24:39;-2.50;99.90
12152;DHT22;6139;51.274;7.128;2023-01-29T06:25:40;-2.60;99.90
12152;DHT22;6139;51.274;7.128;2023-01-29T06:26:42;-2.60;99.90
12152;DHT22;6139;51.274;7.128;2023-01-29T06:27:43;-2.50;99.90
12152;DHT22;6139;51.274;7.128;2023-01-29T06:28:47;-2.50;99.90
12152;DHT22;6139;51.274;7.128;2023-01-29T06:29:48;-2.50;99.90
12152;DHT22;6139;51.274;7.128;2023-01-29T06:30:50;-2.50;99.90
12152;DHT22;6139;51.274;7.128;2023-01-29T06:31:51;-2.50;99.90
12152;DHT22;6139;51.274;7.128;2023-01-29T06:32:55;-2.50;99.90
12152;DHT22;6139;51.274;7.128;2023-01-29T06:33:58;-2.50;99.90
12152;DHT22;6139;51.274;7.128;2023-01-29T06:35:00;-2.50;99.90
12152;DHT22;6139;51.274;7.128;2023-01-29T06:36:03;-2.50;99.90
12152;DHT22;6139;51.274;7.128;2023-01-29T06:37:05;-2.50;99.90
12152;DHT22;6139;51.274;7.128;2023-01-29T06:38:09;-2.40;99.90
12152;DHT22;6139;51.274;7.128;2023-01-29T06:39:10;-2.40;99.90
12152;DHT22;6139;51.274;7.128;2023-01-29T06:40:12;-2.40;99.90
12152;DHT22;6139;51.274;7.128;2023-01-29T06:41:16;-2.40;99.90
12152;DHT22;6139;51.274;7.128;2023-01-29T06:42:18;-2.40;99.90
12152;DHT22;6139;51.274;7.128;2023-01-29T06:43:27;-2.40;99.90
12152;DHT22;6139;51.274;7.128;2023-01-29T06:44:28;-2.40;99.90
12152;DHT22;6139;51.274;7.128;2023-01-29T06:45:30;-2.30;99.90
12152;DHT22;6139;51.274;7.128;2023-01-29T06:46:31;-2.40;99.90
12152;DHT22;6139;51.274;7.128;2023-01-29T06:47:33;-2.40;99.90
12152;DHT22;6139;51.274;7.128;2023-01-29T06:48:34;-2.40;99.90
12152;DHT22;6139;51.274;7.128;2023-01-29T06:49:36;-2.30;99.90
12152;DHT22;6139;51.274;7.128;2023-01-29T06:50:38;-2.40;99.90
12152;DHT22;6139;51.274;7.128;2023-01-29T06:51:39;-2.40;99.90
12152;DHT22;6139;51.274;7.128;2023-01-29T06:52:41;-2.40;99.90
12152;DHT22;6139;51.274;7.128;2023-01-29T06:53:43;-2.30;99.90
12152;DHT22;6139;51.274;7.128;2023-01-29T06:54:45;-2.30;99.90
12152;DHT22;6139;51.274;7.128;2023-01-29T06:55:50;-2.40;99.90
12152;DHT22;6139;51.274;7.128;2023-01-29T06:56:52;-2.40;99.90
12152;DHT22;6139;51.274;7.128;2023-01-29T06:57:54;-2.30;99.90
12152;DHT22;6139;51.274;7.128;2023-01-29T06:58:55;-2.30;99.90
12152;DHT22;6139;51.274;7.128;2023-01-29T06:59:57;-2.30;99.90
12152;DHT22;6139;51.274;7.128;2023-01-29T07:01:02;-2.30;99.90
12152;DHT22;6139;51.274;7.128;2023-01-29T07:02:04;-2.30;99.90
12152;DHT22;6139;51.274;7.128;2023-01-29T07:03:05;-2.30;99.90
12152;DHT22;6139;51.274;7.128;2023-01-29T07:04:09;-2.30;99.90
12152;DHT22;6139;51.274;7.128;2023-01-29T07:05:10;-2.30;99.90
12152;DHT22;6139;51.274;7.128;2023-01-29T07:06:12;-2.30;99.90